createdAt,value
2023-01-29T00:00:13.098Z,6.08
2023-01-29T00:01:11.084Z,6.06
2023-01-29T00:02:11.160Z,6.07
2023-01-29T00:03:11.110Z,6.06
2023-01-29T00:04:11.072Z,6.10
2023-01-29T00:05:26.447Z,6.13
2023-01-29T00:06:13.070Z,6.14
2023-01-29T00:07:11.074Z,6.09
2023-01-29T00:08:11.071Z,6.09
2023-01-29T00:09:11.073Z,6.05
2023-01-29T00:10:11.084Z,6.06
2023-01-29T00:11:11.072Z,6.09
2023-01-29T00:12:12.078Z,6.13
2023-01-29T00:13:11.084Z,6.12
2023-01-29T00:14:11.074Z,6.11
2023-01-29T00:15:11.075Z,6.10
2023-01-29T00:16:11.077Z,6.11
2023-01-29T00:17:11.142Z,6.13
2023-01-29T00:18:11.077Z,6.15
2023-01-29T00:19:11.081Z,6.14
2023-01-29T00:20:11.070Z,6.09
2023-01-29T00:21:13.077Z,6.13
2023-01-29T00:22:11.084Z,6.08
2023-01-29T00:23:11.072Z,6.08
2023-01-29T00:24:11.103Z,6.05
2023-01-29T00:25:11.081Z,6.06
2023-01-29T00:26:11.072Z,6.06
2023-01-29T00:27:11.073Z,6.02
2023-01-29T00:28:11.090Z,6.05
2023-01-29T00:29:11.079Z,6.01
2023-01-29T00:30:16.347Z,6.03
2023-01-29T00:31:14.160Z,6.03
2023-01-29T00:32:11.175Z,6.05
2023-01-29T00:33:11.074Z,6.01
2023-01-29T00:34:11.074Z,5.98
2023-01-29T00:35:11.075Z,5.98
2023-01-29T00:36:11.074Z,5.99
2023-01-29T00:37:12.081Z,6.03
2023-01-29T00:38:11.077Z,6.01
2023-01-29T00:39:14.076Z,6.01
2023-01-29T00:40:11.081Z,5.98
2023-01-29T00:41:17.077Z,5.93
2023-01-29T00:42:15.077Z,5.95
2023-01-29T00:43:15.074Z,5.91
2023-01-29T00:44:15.076Z,5.93
2023-01-29T00:45:11.094Z,5.92
2023-01-29T00:46:11.135Z,5.87
2023-01-29T00:47:15.076Z,5.91
2023-01-29T00:48:11.087Z,5.91
2023-01-29T00:49:11.088Z,5.91
2023-01-29T00:50:12.076Z,5.90
2023-01-29T00:51:11.101Z,5.81
2023-01-29T00:52:15.093Z,5.81
2023-01-29T00:53:11.073Z,5.80
2023-01-29T00:54:11.078Z,5.79
2023-01-29T00:55:11.100Z,5.80
2023-01-29T00:56:11.074Z,5.83
2023-01-29T00:57:11.084Z,5.87
2023-01-29T00:58:11.077Z,5.88
2023-01-29T00:59:11.079Z,5.83
2023-01-29T01:00:14.290Z,5.81
2023-01-29T01:01:11.084Z,5.80
2023-01-29T01:02:15.123Z,5.80
2023-01-29T01:03:11.058Z,5.81
2023-01-29T01:04:11.065Z,5.82
2023-01-29T01:05:11.063Z,5.77
2023-01-29T01:06:11.060Z,5.74
2023-01-29T01:08:19.076Z,5.70
2023-01-29T01:09:15.060Z,5.70
2023-01-29T01:10:23.074Z,5.64
2023-01-29T01:11:11.061Z,5.63
2023-01-29T01:12:11.061Z,5.64
2023-01-29T01:13:11.061Z,5.56
2023-01-29T01:14:11.073Z,5.56
2023-01-29T01:15:11.067Z,5.56
2023-01-29T01:16:13.131Z,5.56
2023-01-29T01:17:11.069Z,5.55
2023-01-29T01:18:11.066Z,5.50
2023-01-29T01:19:11.178Z,5.47
2023-01-29T01:20:11.071Z,5.44
2023-01-29T01:21:11.063Z,5.43
2023-01-29T01:22:11.057Z,5.42
2023-01-29T01:23:11.064Z,5.42
2023-01-29T01:24:11.140Z,5.41
2023-01-29T01:25:11.062Z,5.34
2023-01-29T01:26:11.072Z,5.35
2023-01-29T01:27:11.063Z,5.30
2023-01-29T01:29:13.047Z,5.26
2023-01-29T01:30:13.085Z,5.29
2023-01-29T01:31:11.200Z,5.28
2023-01-29T01:32:11.064Z,5.31
2023-01-29T01:33:11.059Z,5.33
2023-01-29T01:34:11.067Z,5.32
2023-01-29T01:35:11.072Z,5.33
2023-01-29T01:36:13.060Z,5.31
2023-01-29T01:37:11.056Z,5.35
2023-01-29T01:38:11.073Z,5.34
2023-01-29T01:39:11.064Z,5.35
2023-01-29T01:40:18.852Z,5.38
2023-01-29T01:41:11.062Z,5.37
2023-01-29T01:42:14.073Z,5.37
2023-01-29T01:43:11.059Z,5.39
2023-01-29T01:44:19.062Z,5.40
2023-01-29T01:45:19.087Z,5.35
2023-01-29T01:46:11.108Z,5.38
2023-01-29T01:47:11.067Z,5.38
2023-01-29T01:48:18.073Z,5.34
2023-01-29T01:49:18.065Z,5.35
2023-01-29T01:50:20.064Z,5.39
2023-01-29T01:51:11.060Z,5.39
2023-01-29T01:52:11.072Z,5.43
2023-01-29T01:53:15.062Z,5.41
2023-01-29T01:54:16.058Z,5.42
2023-01-29T01:55:12.068Z,5.44
2023-01-29T01:56:13.077Z,5.47
2023-01-29T01:57:16.089Z,5.46
2023-01-29T01:58:16.065Z,5.43
2023-01-29T01:59:12.076Z,5.34
2023-01-29T02:00:17.383Z,5.39
2023-01-29T02:01:11.120Z,5.42
2023-01-29T02:02:15.113Z,5.43
2023-01-29T02:03:15.063Z,5.40
2023-01-29T02:04:20.064Z,5.33
2023-01-29T02:05:15.061Z,5.34
2023-01-29T02:06:15.063Z,5.29
2023-01-29T02:07:15.069Z,5.30
2023-01-29T02:08:15.062Z,5.30
2023-01-29T02:09:20.066Z,5.22
2023-01-29T02:10:16.451Z,5.19
2023-01-29T02:11:11.073Z,5.18
2023-01-29T02:12:12.062Z,5.19
2023-01-29T02:13:11.068Z,5.17
2023-01-29T02:14:11.079Z,5.19
2023-01-29T02:15:11.070Z,5.15
2023-01-29T02:16:11.066Z,5.21
2023-01-29T02:17:11.136Z,5.24
2023-01-29T02:18:11.061Z,5.21
2023-01-29T02:19:21.064Z,5.25
2023-01-29T02:20:23.075Z,5.30
2023-01-29T02:21:21.076Z,5.28
2023-01-29T02:22:19.066Z,5.29
2023-01-29T02:23:19.081Z,5.29
2023-01-29T02:24:19.147Z,5.30
2023-01-29T02:25:23.070Z,5.34
2023-01-29T02:26:21.108Z,5.37
2023-01-29T02:27:19.069Z,5.31
2023-01-29T02:28:19.065Z,5.30
2023-01-29T02:29:23.070Z,5.35
2023-01-29T02:30:21.067Z,5.31
2023-01-29T02:31:21.199Z,5.35
2023-01-29T02:32:21.066Z,5.33
2023-01-29T02:33:19.068Z,5.34
2023-01-29T02:34:19.067Z,5.36
2023-01-29T02:35:24.065Z,5.38
2023-01-29T02:36:18.067Z,5.37
2023-01-29T02:37:11.072Z,5.37
2023-01-29T02:38:23.064Z,5.40
2023-01-29T02:39:21.065Z,5.43
2023-01-29T02:40:19.062Z,5.40
2023-01-29T02:41:21.066Z,5.41
2023-01-29T02:42:21.072Z,5.41
2023-01-29T02:43:19.065Z,5.41
2023-01-29T02:44:20.063Z,5.43
2023-01-29T02:45:18.064Z,5.46
2023-01-29T02:46:19.125Z,5.47
2023-01-29T02:47:19.079Z,5.47
2023-01-29T02:48:15.068Z,5.38
2023-01-29T02:49:17.062Z,5.38
2023-01-29T02:50:19.309Z,5.40
2023-01-29T02:51:21.078Z,5.38
2023-01-29T02:52:19.068Z,5.35
2023-01-29T02:53:15.073Z,5.35
2023-01-29T02:54:20.069Z,5.38
2023-01-29T02:55:15.074Z,5.40
2023-01-29T02:56:19.067Z,5.36
2023-01-29T02:57:21.066Z,5.42
2023-01-29T02:58:21.069Z,5.43
2023-01-29T02:59:14.077Z,5.47
2023-01-29T03:00:18.367Z,5.44
2023-01-29T03:01:17.101Z,5.45
2023-01-29T03:02:15.090Z,5.47
2023-01-29T03:03:17.076Z,5.48
2023-01-29T03:04:15.086Z,5.43
2023-01-29T03:05:14.067Z,5.46
2023-01-29T03:06:20.070Z,5.44
2023-01-29T03:07:13.075Z,5.41
2023-01-29T03:08:14.069Z,5.42
2023-01-29T03:09:19.064Z,5.41
2023-01-29T03:10:19.104Z,5.43
2023-01-29T03:11:11.073Z,5.43
2023-01-29T03:12:23.065Z,5.44
2023-01-29T03:13:21.069Z,5.44
2023-01-29T03:14:19.076Z,5.46
2023-01-29T03:15:22.070Z,5.49
2023-01-29T03:16:19.153Z,5.46
2023-01-29T03:17:11.076Z,5.51
2023-01-29T03:18:17.067Z,5.49
2023-01-29T03:19:16.082Z,5.48
2023-01-29T03:20:14.359Z,5.51
2023-01-29T03:21:20.065Z,5.50
2023-01-29T03:22:11.072Z,5.51
2023-01-29T03:23:14.070Z,5.50
2023-01-29T03:24:16.146Z,5.50
2023-01-29T03:25:18.069Z,5.48
2023-01-29T03:26:16.073Z,5.45
2023-01-29T03:27:16.069Z,5.48
2023-01-29T03:28:16.076Z,5.50
2023-01-29T03:29:15.070Z,5.53
2023-01-29T03:30:17.391Z,5.53
2023-01-29T03:31:15.117Z,5.53
2023-01-29T03:32:13.139Z,5.53
2023-01-29T03:33:11.107Z,5.51
2023-01-29T03:34:13.071Z,5.53
2023-01-29T03:35:12.079Z,5.55
2023-01-29T03:36:22.066Z,5.58
2023-01-29T03:37:17.068Z,5.58
2023-01-29T03:38:11.070Z,5.60
2023-01-29T03:39:11.077Z,5.57
2023-01-29T03:40:11.075Z,5.61
2023-01-29T03:41:23.075Z,5.60
2023-01-29T03:42:19.074Z,5.64
2023-01-29T03:43:16.077Z,5.62
2023-01-29T03:44:19.077Z,5.62
2023-01-29T03:45:19.075Z,5.57
2023-01-29T03:46:21.070Z,5.58
2023-01-29T03:47:19.078Z,5.51
2023-01-29T03:48:18.072Z,5.47
2023-01-29T03:49:19.073Z,5.46
2023-01-29T03:50:21.065Z,5.45
2023-01-29T03:51:21.079Z,5.46
2023-01-29T03:52:19.075Z,5.49
2023-01-29T03:53:17.071Z,5.51
2023-01-29T03:54:19.071Z,5.55
2023-01-29T03:55:19.092Z,5.57
2023-01-29T03:56:19.069Z,5.54
2023-01-29T03:57:18.101Z,5.52
2023-01-29T03:58:19.072Z,5.53
2023-01-29T03:59:19.096Z,5.53
2023-01-29T04:00:17.498Z,5.56
2023-01-29T04:01:18.138Z,5.54
2023-01-29T04:02:15.063Z,5.53
2023-01-29T04:03:18.060Z,5.50
2023-01-29T04:04:22.125Z,5.51
2023-01-29T04:05:17.069Z,5.52
2023-01-29T04:06:20.066Z,5.53
2023-01-29T04:07:15.064Z,5.47
2023-01-29T04:08:15.064Z,5.51
2023-01-29T04:09:17.062Z,5.54
2023-01-29T04:10:14.279Z,5.56
2023-01-29T04:11:15.062Z,5.59
2023-01-29T04:12:12.060Z,5.60
2023-01-29T04:13:14.070Z,5.63
2023-01-29T04:14:11.060Z,5.63
2023-01-29T04:15:13.063Z,5.66
2023-01-29T04:16:15.103Z,5.62
2023-01-29T04:17:19.059Z,5.63
2023-01-29T04:18:11.060Z,5.66
2023-01-29T04:19:11.061Z,5.67
2023-01-29T04:20:11.070Z,5.64
2023-01-29T04:21:11.057Z,5.65
2023-01-29T04:22:21.076Z,5.61
2023-01-29T04:23:19.073Z,5.59
2023-01-29T04:24:11.100Z,5.58
2023-01-29T04:25:17.055Z,5.53
2023-01-29T04:26:19.074Z,5.52
2023-01-29T04:27:21.074Z,5.47
2023-01-29T04:28:20.067Z,5.50
2023-01-29T04:29:21.063Z,5.49
2023-01-29T04:30:19.110Z,5.50
2023-01-29T04:31:11.183Z,5.55
2023-01-29T04:32:20.071Z,5.58
2023-01-29T04:33:19.074Z,5.56
2023-01-29T04:34:19.062Z,5.51
2023-01-29T04:35:21.061Z,5.52
2023-01-29T04:36:19.075Z,5.52
2023-01-29T04:37:19.063Z,5.50
2023-01-29T04:38:19.063Z,5.52
2023-01-29T04:39:19.078Z,5.52
2023-01-29T04:40:19.265Z,5.55
2023-01-29T04:41:21.068Z,5.54
2023-01-29T04:42:23.069Z,5.52
2023-01-29T04:43:20.067Z,5.52
2023-01-29T04:44:20.062Z,5.56
2023-01-29T04:45:21.059Z,5.53
2023-01-29T04:46:18.057Z,5.51
2023-01-29T04:47:20.158Z,5.53
2023-01-29T04:48:22.071Z,5.55
2023-01-29T04:49:19.066Z,5.56
2023-01-29T04:50:25.062Z,5.55
2023-01-29T04:52:59.098Z,5.56
2023-01-29T04:55:00.671Z,5.52
2023-01-29T04:56:29.064Z,5.31
2023-01-29T04:57:25.063Z,5.36
2023-01-29T04:58:19.065Z,5.38
2023-01-29T04:59:19.065Z,5.37
2023-01-29T05:00:20.063Z,5.41
2023-01-29T05:01:13.097Z,5.37
2023-01-29T05:02:11.065Z,5.37
2023-01-29T05:06:24.110Z,5.36
2023-01-29T05:06:24.265Z,5.40
2023-01-29T05:07:19.059Z,5.38
2023-01-29T05:08:21.063Z,5.38
2023-01-29T05:09:22.075Z,5.40
2023-01-29T05:10:11.070Z,5.41
2023-01-29T05:11:11.061Z,5.43
2023-01-29T05:12:11.073Z,5.43
2023-01-29T05:13:13.073Z,5.42
2023-01-29T05:14:13.065Z,5.42
2023-01-29T05:15:14.067Z,5.44
2023-01-29T05:16:19.132Z,5.42
2023-01-29T05:17:19.062Z,5.39
2023-01-29T05:18:12.061Z,5.39
2023-01-29T05:19:15.077Z,5.44
2023-01-29T05:20:11.066Z,5.42
2023-01-29T05:21:11.092Z,5.44
2023-01-29T05:22:12.059Z,5.44
2023-01-29T05:23:17.081Z,5.48
2023-01-29T05:24:19.162Z,5.50
2023-01-29T05:25:21.064Z,5.49
2023-01-29T05:26:11.060Z,5.52
2023-01-29T05:27:20.073Z,5.53
2023-01-29T05:28:15.072Z,5.52
2023-01-29T05:29:11.066Z,5.52
2023-01-29T05:30:11.067Z,5.50
2023-01-29T05:31:11.208Z,5.48
2023-01-29T05:32:11.063Z,5.44
2023-01-29T05:33:19.072Z,5.44
2023-01-29T05:34:11.073Z,5.40
2023-01-29T05:35:11.069Z,5.43
2023-01-29T05:36:11.062Z,5.43
2023-01-29T05:37:11.072Z,5.47
2023-01-29T05:38:11.063Z,5.48
2023-01-29T05:39:11.065Z,5.47
2023-01-29T05:40:12.071Z,5.46
2023-01-29T05:41:11.074Z,5.47
2023-01-29T05:42:11.062Z,5.41
2023-01-29T05:43:20.104Z,5.45
2023-01-29T05:44:11.074Z,5.44
2023-01-29T05:45:11.064Z,5.45
2023-01-29T05:46:11.065Z,5.48
2023-01-29T05:47:11.087Z,5.52
2023-01-29T05:48:11.062Z,5.50
2023-01-29T05:49:11.066Z,5.52
2023-01-29T05:50:11.074Z,5.53
2023-01-29T05:51:11.072Z,5.53
2023-01-29T05:52:11.071Z,5.49
2023-01-29T05:53:11.075Z,5.47
2023-01-29T05:54:11.066Z,5.46
2023-01-29T05:55:11.076Z,5.46
2023-01-29T05:56:11.077Z,5.48
2023-01-29T05:57:11.070Z,5.46
2023-01-29T05:58:11.068Z,5.46
2023-01-29T05:59:11.073Z,5.46
2023-01-29T06:00:11.066Z,5.48
2023-01-29T06:01:17.074Z,5.49
2023-01-29T06:02:11.180Z,5.48
2023-01-29T06:03:11.133Z,5.51
2023-01-29T06:04:11.064Z,5.50
2023-01-29T06:05:11.077Z,5.44
2023-01-29T06:06:11.069Z,5.47
2023-01-29T06:07:11.064Z,5.47
2023-01-29T06:08:11.070Z,5.52
2023-01-29T06:09:11.068Z,5.53
2023-01-29T06:10:11.072Z,5.52
2023-01-29T06:11:11.088Z,5.52
2023-01-29T06:12:11.068Z,5.54
2023-01-29T06:13:11.071Z,5.53
2023-01-29T06:14:11.109Z,5.52
2023-01-29T06:15:11.069Z,5.55
2023-01-29T06:16:11.122Z,5.54
2023-01-29T06:17:11.070Z,5.53
2023-01-29T06:18:11.069Z,5.52
2023-01-29T06:19:11.068Z,5.50
2023-01-29T06:20:11.068Z,5.50
2023-01-29T06:21:11.081Z,5.49
2023-01-29T06:22:11.072Z,5.49
2023-01-29T06:23:11.068Z,5.45
2023-01-29T06:24:11.083Z,5.47
2023-01-29T06:25:11.081Z,5.48
2023-01-29T06:26:13.073Z,5.46
2023-01-29T06:27:11.069Z,5.48
2023-01-29T06:28:11.068Z,5.49
2023-01-29T06:29:11.068Z,5.48
2023-01-29T06:30:11.090Z,5.48
2023-01-29T06:31:30.367Z,5.43
2023-01-29T06:32:13.460Z,5.45
2023-01-29T06:33:11.072Z,5.48
2023-01-29T06:34:11.072Z,5.49
2023-01-29T06:35:11.075Z,5.49
2023-01-29T06:36:11.070Z,5.48
2023-01-29T06:37:11.066Z,5.52
2023-01-29T06:38:11.068Z,5.56
2023-01-29T06:39:11.079Z,5.55
2023-01-29T06:40:11.067Z,5.55
2023-01-29T06:41:11.076Z,5.56
2023-01-29T06:42:11.077Z,5.58
2023-01-29T06:43:11.069Z,5.59
2023-01-29T06:44:11.070Z,5.57
2023-01-29T06:45:11.072Z,5.52
2023-01-29T06:46:11.069Z,5.48
2023-01-29T06:47:11.080Z,5.48
2023-01-29T06:48:11.079Z,5.50
2023-01-29T06:49:11.069Z,5.52
2023-01-29T06:50:11.077Z,5.54
2023-01-29T06:51:11.092Z,5.52
2023-01-29T06:52:11.070Z,5.52
2023-01-29T06:53:11.072Z,5.57
2023-01-29T06:54:12.081Z,5.58
2023-01-29T06:55:11.072Z,5.62
2023-01-29T06:56:11.068Z,5.58
2023-01-29T06:57:11.103Z,5.56
2023-01-29T06:58:11.071Z,5.60
2023-01-29T06:59:11.068Z,5.58
2023-01-29T07:00:11.065Z,5.56
2023-01-29T07:01:12.664Z,5.58
2023-01-29T07:02:13.124Z,5.59
2023-01-29T07:03:11.062Z,5.61
2023-01-29T07:04:11.070Z,5.55
2023-01-29T07:05:11.101Z,5.57
2023-01-29T07:06:11.062Z,5.57
2023-01-29T07:07:15.077Z,5.60
2023-01-29T07:08:11.059Z,5.63
2023-01-29T07:09:11.067Z,5.57
2023-01-29T07:10:11.085Z,5.59
2023-01-29T07:11:11.064Z,5.61
2023-01-29T07:12:11.065Z,5.63
2023-01-29T07:13:11.073Z,5.64
2023-01-29T07:14:11.067Z,5.63
2023-01-29T07:15:11.057Z,5.60
2023-01-29T07:16:11.125Z,5.65
2023-01-29T07:17:11.064Z,5.68
2023-01-29T07:18:15.067Z,5.67
2023-01-29T07:19:11.061Z,5.70
2023-01-29T07:20:11.062Z,5.72
2023-01-29T07:21:11.059Z,5.70
2023-01-29T07:22:11.070Z,5.69
2023-01-29T07:23:13.086Z,5.70
2023-01-29T07:24:11.101Z,5.69
2023-01-29T07:25:11.062Z,5.72
2023-01-29T07:26:11.074Z,5.73
2023-01-29T07:27:11.066Z,5.72
2023-01-29T07:28:11.063Z,5.75
2023-01-29T07:29:11.065Z,5.77
2023-01-29T07:30:11.066Z,5.74
2023-01-29T07:31:11.139Z,5.74
2023-01-29T07:32:11.181Z,5.77
2023-01-29T07:33:11.062Z,5.77
2023-01-29T07:34:11.063Z,5.75
2023-01-29T07:35:11.064Z,5.77
2023-01-29T07:36:11.071Z,5.77
2023-01-29T07:37:11.064Z,5.80
2023-01-29T07:38:11.078Z,5.80
2023-01-29T07:39:11.064Z,5.79
2023-01-29T07:40:15.463Z,5.79
2023-01-29T07:41:11.071Z,5.80
2023-01-29T07:42:11.061Z,5.79
2023-01-29T07:43:11.064Z,5.75
2023-01-29T07:44:11.072Z,5.77
2023-01-29T07:45:11.064Z,5.75
2023-01-29T07:46:11.167Z,5.75
2023-01-29T07:47:11.068Z,5.72
2023-01-29T07:48:12.065Z,5.71
2023-01-29T07:49:11.127Z,5.73
2023-01-29T07:50:11.071Z,5.75
2023-01-29T07:51:11.061Z,5.69
2023-01-29T07:52:11.071Z,5.72
2023-01-29T07:53:14.079Z,5.71
2023-01-29T07:54:11.065Z,5.71
2023-01-29T07:55:11.067Z,5.67
2023-01-29T07:56:11.074Z,5.64
2023-01-29T07:57:11.065Z,5.70
2023-01-29T07:58:11.070Z,5.68
2023-01-29T07:59:11.081Z,5.70
2023-01-29T08:00:11.065Z,5.69
2023-01-29T08:01:11.160Z,5.68
2023-01-29T08:02:11.161Z,5.71
2023-01-29T08:03:14.071Z,5.68
2023-01-29T08:04:11.062Z,5.68
2023-01-29T08:05:11.072Z,5.70
2023-01-29T08:06:11.072Z,5.70
2023-01-29T08:07:11.061Z,5.70
2023-01-29T08:08:11.067Z,5.72
2023-01-29T08:09:11.065Z,5.69
2023-01-29T08:10:11.085Z,5.68
2023-01-29T08:11:11.067Z,5.69
2023-01-29T08:12:11.069Z,5.72
2023-01-29T08:13:11.077Z,5.72
2023-01-29T08:14:11.078Z,5.75
2023-01-29T08:15:11.067Z,5.74
2023-01-29T08:16:11.116Z,5.81
2023-01-29T08:17:11.073Z,5.84
2023-01-29T08:18:11.068Z,5.87
2023-01-29T08:19:11.065Z,5.91
2023-01-29T08:20:11.065Z,5.93
2023-01-29T08:21:13.024Z,5.97
2023-01-29T08:22:11.065Z,5.95
2023-01-29T08:23:13.073Z,5.92
2023-01-29T08:24:11.077Z,5.94
2023-01-29T08:25:11.069Z,5.94
2023-01-29T08:26:11.069Z,5.98
2023-01-29T08:27:11.075Z,6.02
2023-01-29T08:28:11.064Z,6.02
2023-01-29T08:29:11.072Z,6.04
2023-01-29T08:30:11.074Z,6.06
2023-01-29T08:31:15.182Z,6.03
2023-01-29T08:32:11.081Z,6.00
2023-01-29T08:33:11.067Z,6.04
2023-01-29T08:34:11.068Z,6.03
2023-01-29T08:35:11.068Z,6.06
2023-01-29T08:36:11.068Z,6.05
2023-01-29T08:37:11.069Z,6.06
2023-01-29T08:38:11.066Z,6.02
2023-01-29T08:39:11.073Z,6.03
2023-01-29T08:40:11.077Z,5.97
2023-01-29T08:41:11.065Z,6.03
2023-01-29T08:42:11.071Z,6.02
2023-01-29T08:43:11.083Z,6.07
2023-01-29T08:44:11.067Z,6.08
2023-01-29T08:45:11.071Z,6.01
2023-01-29T08:46:11.141Z,6.04
2023-01-29T08:47:11.066Z,5.99
2023-01-29T08:48:11.076Z,5.97
2023-01-29T08:49:11.076Z,5.95
2023-01-29T08:50:11.083Z,5.93
2023-01-29T08:51:11.082Z,5.96
2023-01-29T08:52:11.078Z,5.93
2023-01-29T08:53:11.097Z,5.94
2023-01-29T08:54:11.075Z,5.97
2023-01-29T08:55:11.078Z,5.97
2023-01-29T08:56:11.068Z,5.95
2023-01-29T08:57:11.071Z,5.93
2023-01-29T08:58:11.083Z,5.97
2023-01-29T08:59:11.067Z,5.98
2023-01-29T09:00:11.084Z,6.00
2023-01-29T09:01:11.154Z,6.04
2023-01-29T09:02:11.138Z,5.96
2023-01-29T09:03:11.068Z,5.97
2023-01-29T09:04:11.077Z,5.98
2023-01-29T09:05:11.070Z,5.99
2023-01-29T09:06:11.073Z,5.96
2023-01-29T09:07:11.077Z,6.01
2023-01-29T09:08:11.069Z,5.95
2023-01-29T09:09:11.069Z,5.99
2023-01-29T09:10:11.075Z,6.04
2023-01-29T09:11:11.071Z,6.09
2023-01-29T09:12:11.076Z,6.10
2023-01-29T09:13:11.073Z,6.15
2023-01-29T09:14:11.069Z,6.20
2023-01-29T09:15:11.070Z,6.26
2023-01-29T09:16:11.070Z,6.29
2023-01-29T09:17:11.074Z,6.31
2023-01-29T09:18:11.080Z,6.37
2023-01-29T09:19:11.068Z,6.41
2023-01-29T09:20:11.079Z,6.43
2023-01-29T09:21:11.080Z,6.41
2023-01-29T09:22:11.949Z,6.43
2023-01-29T09:23:11.083Z,6.46
2023-01-29T09:24:11.121Z,6.52
2023-01-29T09:25:11.070Z,6.51
2023-01-29T09:26:11.142Z,6.57
2023-01-29T09:27:11.065Z,6.62
2023-01-29T09:28:11.074Z,6.64
2023-01-29T09:29:11.074Z,6.63
2023-01-29T09:30:11.084Z,6.66
2023-01-29T09:31:11.222Z,6.64
2023-01-29T09:32:11.072Z,6.65
2023-01-29T09:33:11.073Z,6.69
2023-01-29T09:34:11.070Z,6.74
2023-01-29T09:35:11.075Z,6.77
2023-01-29T09:36:11.084Z,6.81
2023-01-29T09:37:11.077Z,6.86
2023-01-29T09:38:11.074Z,6.90
2023-01-29T09:39:11.069Z,6.92
2023-01-29T09:40:19.090Z,6.96
2023-01-29T09:41:21.077Z,6.94
2023-01-29T09:42:17.071Z,6.98
2023-01-29T09:43:18.071Z,7.00
2023-01-29T09:44:19.071Z,7.06
2023-01-29T09:45:16.588Z,7.07
2023-01-29T09:46:17.173Z,7.08
2023-01-29T09:47:14.075Z,7.11
2023-01-29T09:48:13.072Z,7.14
2023-01-29T09:49:21.079Z,7.15
2023-01-29T09:50:20.147Z,7.17
2023-01-29T09:51:19.072Z,7.18
2023-01-29T09:52:18.077Z,7.23
2023-01-29T09:53:23.074Z,7.28
2023-01-29T09:54:19.080Z,7.27
2023-01-29T09:55:19.258Z,7.29
2023-01-29T09:56:16.072Z,7.32
2023-01-29T09:57:17.076Z,7.37
2023-01-29T09:58:18.080Z,7.37
2023-01-29T09:59:12.077Z,7.43
2023-01-29T10:00:19.061Z,7.48
2023-01-29T10:01:21.137Z,7.50
2023-01-29T10:02:21.201Z,7.49
2023-01-29T10:03:21.068Z,7.53
2023-01-29T10:04:19.134Z,7.56
2023-01-29T10:05:21.063Z,7.58
2023-01-29T10:06:21.062Z,7.56
2023-01-29T10:07:21.080Z,7.56
2023-01-29T10:08:19.062Z,7.56
2023-01-29T10:09:21.069Z,7.49
2023-01-29T10:10:19.062Z,7.48
2023-01-29T10:11:21.064Z,7.48
2023-01-29T10:12:21.058Z,7.44
2023-01-29T10:13:19.068Z,7.46
2023-01-29T10:14:21.072Z,7.48
2023-01-29T10:15:21.063Z,7.52
2023-01-29T10:16:19.064Z,7.48
2023-01-29T10:17:19.170Z,7.53
2023-01-29T10:18:21.071Z,7.59
2023-01-29T10:19:21.076Z,7.57
2023-01-29T10:20:21.097Z,7.56
2023-01-29T10:21:21.063Z,7.55
2023-01-29T10:22:19.061Z,7.52
2023-01-29T10:23:20.057Z,7.49
2023-01-29T10:24:19.063Z,7.51
2023-01-29T10:25:15.700Z,7.52
2023-01-29T10:26:14.117Z,7.59
2023-01-29T10:27:17.063Z,7.57
2023-01-29T10:28:19.069Z,7.60
2023-01-29T10:29:14.083Z,7.64
2023-01-29T10:30:19.064Z,7.70
2023-01-29T10:31:22.206Z,7.73
2023-01-29T10:32:17.065Z,7.81
2023-01-29T10:33:17.070Z,7.87
2023-01-29T10:34:21.069Z,7.94
2023-01-29T10:35:19.069Z,7.98
2023-01-29T10:36:17.066Z,8.05
2023-01-29T10:37:19.066Z,8.04
2023-01-29T10:38:19.072Z,8.06
2023-01-29T10:39:18.070Z,7.94
2023-01-29T10:40:21.072Z,7.99
2023-01-29T10:41:19.059Z,7.97
2023-01-29T10:42:19.062Z,7.95
2023-01-29T10:43:18.072Z,7.98
2023-01-29T10:44:19.064Z,8.01
2023-01-29T10:45:19.406Z,8.05
2023-01-29T10:46:21.074Z,8.11
2023-01-29T10:47:19.100Z,8.11
2023-01-29T10:48:19.076Z,8.08
2023-01-29T10:49:19.065Z,8.08
2023-01-29T10:50:19.109Z,8.12
2023-01-29T10:51:19.073Z,8.12
2023-01-29T10:52:23.072Z,8.18
2023-01-29T10:53:21.075Z,8.20
2023-01-29T10:54:21.066Z,8.18
2023-01-29T10:55:19.388Z,8.23
2023-01-29T10:56:23.093Z,8.19
2023-01-29T10:57:19.068Z,8.29
2023-01-29T10:58:21.066Z,8.36
2023-01-29T10:59:19.068Z,8.42
2023-01-29T11:00:19.068Z,8.47
2023-01-29T11:01:11.129Z,8.54
2023-01-29T11:02:15.075Z,8.67
2023-01-29T11:03:27.102Z,8.68
2023-01-29T11:04:13.849Z,8.75
2023-01-29T11:05:19.066Z,8.82
2023-01-29T11:06:19.087Z,8.89
2023-01-29T11:07:11.067Z,8.88
2023-01-29T11:08:19.064Z,8.99
2023-01-29T11:09:19.091Z,9.02
2023-01-29T11:10:14.542Z,9.03
2023-01-29T11:11:14.074Z,9.15
2023-01-29T11:12:16.069Z,9.23
2023-01-29T11:13:14.069Z,9.37
2023-01-29T11:14:18.070Z,9.45
2023-01-29T11:15:18.079Z,9.51
2023-01-29T11:16:11.085Z,9.62
2023-01-29T11:17:15.138Z,9.59
2023-01-29T11:18:11.067Z,9.71
2023-01-29T11:19:11.063Z,9.80
2023-01-29T11:20:19.384Z,9.81
2023-01-29T11:21:11.068Z,9.76
2023-01-29T11:22:20.144Z,9.80
2023-01-29T11:23:19.068Z,9.74
2023-01-29T11:24:13.072Z,9.66
2023-01-29T11:25:18.069Z,9.66
2023-01-29T11:26:13.096Z,9.50
2023-01-29T11:27:19.067Z,9.39
2023-01-29T11:28:12.076Z,9.40
2023-01-29T11:29:19.070Z,9.37
2023-01-29T11:30:15.489Z,9.39
2023-01-29T11:31:19.198Z,9.39
2023-01-29T11:32:18.069Z,9.35
2023-01-29T11:33:19.066Z,9.32
2023-01-29T11:34:19.067Z,9.35
2023-01-29T11:35:19.069Z,9.44
2023-01-29T11:36:19.082Z,9.48
2023-01-29T11:37:16.075Z,9.52
2023-01-29T11:38:19.067Z,9.54
2023-01-29T11:39:19.076Z,9.60
2023-01-29T11:40:19.261Z,9.70
2023-01-29T11:41:17.067Z,9.74
2023-01-29T11:42:20.069Z,9.74
2023-01-29T11:43:21.083Z,9.75
2023-01-29T11:44:19.087Z,9.70
2023-01-29T11:45:19.077Z,9.70
2023-01-29T11:46:14.113Z,9.75
2023-01-29T11:47:20.069Z,9.77
2023-01-29T11:48:15.067Z,9.75
2023-01-29T11:49:20.844Z,9.70
2023-01-29T11:50:19.400Z,9.65
2023-01-29T11:51:12.071Z,9.60
2023-01-29T11:52:11.084Z,9.60
2023-01-29T11:53:19.072Z,9.52
2023-01-29T11:54:17.080Z,9.41
2023-01-29T11:55:21.068Z,9.40
2023-01-29T11:56:19.075Z,9.35
2023-01-29T11:57:19.915Z,9.28
2023-01-29T11:58:19.084Z,9.19
2023-01-29T11:59:19.072Z,9.20
2023-01-29T12:00:19.566Z,9.21
2023-01-29T12:01:11.071Z,9.18
2023-01-29T12:02:19.074Z,9.23
2023-01-29T12:03:22.618Z,9.19
2023-01-29T12:04:19.075Z,9.16
2023-01-29T12:05:19.077Z,9.08
2023-01-29T12:06:19.079Z,9.10
2023-01-29T12:07:14.073Z,9.15
2023-01-29T12:08:18.092Z,9.18
2023-01-29T12:09:16.083Z,9.16
2023-01-29T12:10:21.072Z,9.09
2023-01-29T12:11:21.078Z,9.06
2023-01-29T12:12:21.085Z,9.02
2023-01-29T12:13:21.076Z,9.00
2023-01-29T12:14:19.070Z,8.96
2023-01-29T12:15:18.074Z,8.99
2023-01-29T12:16:19.147Z,9.06
2023-01-29T12:17:20.073Z,9.14
2023-01-29T12:18:19.074Z,9.18
2023-01-29T12:19:19.073Z,9.12
2023-01-29T12:20:19.314Z,9.08
2023-01-29T12:21:19.086Z,9.11
2023-01-29T12:22:19.074Z,9.18
2023-01-29T12:23:19.070Z,9.28
2023-01-29T12:24:19.076Z,9.35
2023-01-29T12:25:19.082Z,9.41
2023-01-29T12:26:19.118Z,9.42
2023-01-29T12:27:20.073Z,9.46
2023-01-29T12:28:19.074Z,9.53
2023-01-29T12:29:19.072Z,9.60
2023-01-29T12:30:21.088Z,9.56
2023-01-29T12:31:21.119Z,9.53
2023-01-29T12:32:19.077Z,9.51
2023-01-29T12:33:21.074Z,9.42
2023-01-29T12:34:21.077Z,9.40
2023-01-29T12:35:21.097Z,9.38
2023-01-29T12:36:18.089Z,9.31
2023-01-29T12:37:21.077Z,9.31
2023-01-29T12:38:17.094Z,9.32
2023-01-29T12:39:12.086Z,9.31
2023-01-29T12:40:13.097Z,9.31
2023-01-29T12:41:19.080Z,9.32
2023-01-29T12:42:21.073Z,9.36
2023-01-29T12:43:18.078Z,9.44
2023-01-29T12:44:19.079Z,9.49
2023-01-29T12:45:15.085Z,9.54
2023-01-29T12:46:19.074Z,9.58
2023-01-29T12:47:18.073Z,9.51
2023-01-29T12:48:14.076Z,9.60
2023-01-29T12:49:17.082Z,9.65
2023-01-29T12:50:18.458Z,9.61
2023-01-29T12:51:18.075Z,9.62
2023-01-29T12:52:18.092Z,9.67
2023-01-29T12:53:19.076Z,9.61
2023-01-29T12:54:19.077Z,9.61
2023-01-29T12:55:21.082Z,9.60
2023-01-29T12:56:17.076Z,9.67
2023-01-29T12:57:22.088Z,9.72
2023-01-29T12:58:15.082Z,9.75
2023-01-29T12:59:19.090Z,9.77
2023-01-29T13:00:20.075Z,9.82
2023-01-29T13:01:18.129Z,9.86
2023-01-29T13:02:19.101Z,9.87
2023-01-29T13:03:21.198Z,9.87
2023-01-29T13:04:19.057Z,9.88
2023-01-29T13:05:19.076Z,9.90
2023-01-29T13:06:18.065Z,9.90
2023-01-29T13:07:15.067Z,9.90
2023-01-29T13:08:20.069Z,9.95
2023-01-29T13:09:17.069Z,9.96
2023-01-29T13:10:15.542Z,9.83
2023-01-29T13:11:16.073Z,9.79
2023-01-29T13:12:17.065Z,9.82
2023-01-29T13:13:19.061Z,9.76
2023-01-29T13:14:19.069Z,9.79
2023-01-29T13:15:19.064Z,9.82
2023-01-29T13:16:14.114Z,9.77
2023-01-29T13:17:21.062Z,9.75
2023-01-29T13:18:21.072Z,9.70
2023-01-29T13:19:23.072Z,9.70
2023-01-29T13:20:19.368Z,9.70
2023-01-29T13:21:18.061Z,9.62
2023-01-29T13:22:20.067Z,9.63
2023-01-29T13:23:19.066Z,9.60
2023-01-29T13:24:16.076Z,9.61
2023-01-29T13:25:17.062Z,9.61